createdAt,value
2022-08-19T00:01:55.592Z,8.57
2022-08-19T00:04:30.723Z,7.77
2022-08-19T00:06:58.519Z,9.40
2022-08-19T00:09:25.719Z,8.98
2022-08-19T00:11:56.394Z,10.55
2022-08-19T00:14:25.395Z,10.23
2022-08-19T00:16:55.404Z,8.77
2022-08-19T00:19:23.414Z,8.65
2022-08-19T00:21:50.926Z,5.95
2022-08-19T00:24:17.788Z,8.63
2022-08-19T00:26:46.354Z,10.38
2022-08-19T00:29:16.562Z,7.60
2022-08-19T00:31:44.623Z,8.50
2022-08-19T00:34:13.128Z,7.60
2022-08-19T00:36:43.023Z,8.25
2022-08-19T00:39:10.488Z,6.75
2022-08-19T00:41:37.589Z,7.70
2022-08-19T00:44:16.164Z,9.90
2022-08-19T00:46:45.306Z,6.65
2022-08-19T00:49:44.649Z,7.75
2022-08-19T00:52:34.779Z,9.13
2022-08-19T00:55:02.778Z,7.87
2022-08-19T00:57:35.895Z,6.22
2022-08-19T01:00:08.230Z,7.95
2022-08-19T01:02:35.343Z,9.10
2022-08-19T01:05:09.108Z,8.20
2022-08-19T01:07:38.301Z,11.00
2022-08-19T01:10:08.571Z,11.82
2022-08-19T01:12:36.226Z,9.82
2022-08-19T01:15:04.294Z,11.82
2022-08-19T01:17:31.177Z,13.85
2022-08-19T01:19:58.166Z,12.70
2022-08-19T01:22:31.555Z,16.58
2022-08-19T01:25:00.494Z,13.88
2022-08-19T01:27:29.894Z,9.10
2022-08-19T01:30:13.736Z,11.18
2022-08-19T01:32:40.877Z,9.77
2022-08-19T01:35:08.850Z,9.88
2022-08-19T01:37:57.730Z,13.35
2022-08-19T01:40:30.133Z,13.30
2022-08-19T01:42:56.929Z,12.75
2022-08-19T01:45:26.715Z,11.33
2022-08-19T01:48:01.173Z,10.93
2022-08-19T01:50:30.756Z,10.57
2022-08-19T01:53:05.853Z,11.10
2022-08-19T01:55:35.391Z,11.57
2022-08-19T01:58:31.310Z,13.07
2022-08-19T02:00:58.528Z,13.32
2022-08-19T02:03:25.631Z,14.88
2022-08-19T02:06:00.705Z,11.32
2022-08-19T02:08:28.465Z,18.70
2022-08-19T02:10:55.327Z,12.03
2022-08-19T02:13:26.443Z,10.43
2022-08-19T02:15:53.502Z,11.65
2022-08-19T02:18:20.298Z,9.27
2022-08-19T02:20:48.563Z,9.63
2022-08-19T02:23:17.647Z,10.27
2022-08-19T02:25:47.095Z,14.23
2022-08-19T02:28:18.382Z,12.88
2022-08-19T02:30:47.049Z,12.95
2022-08-19T02:33:13.942Z,11.15
2022-08-19T02:35:47.771Z,9.23
2022-08-19T02:38:27.204Z,11.88
2022-08-19T02:40:57.573Z,12.00
2022-08-19T02:43:26.743Z,10.52
2022-08-19T02:45:54.402Z,12.13
2022-08-19T02:48:22.843Z,10.10
2022-08-19T02:50:58.500Z,13.65
2022-08-19T02:53:28.368Z,12.63
2022-08-19T02:55:55.356Z,10.65
2022-08-19T02:58:23.942Z,12.30
2022-08-19T03:00:57.888Z,15.00
2022-08-19T03:03:25.204Z,13.48
2022-08-19T03:05:56.567Z,13.75
2022-08-19T03:08:25.385Z,12.93
2022-08-19T03:10:54.003Z,13.25
2022-08-19T03:13:21.057Z,9.93
2022-08-19T03:15:49.561Z,15.60
2022-08-19T03:18:18.290Z,12.52
2022-08-19T03:20:48.437Z,13.38
2022-08-19T03:23:17.177Z,13.52
2022-08-19T03:26:03.183Z,13.90
2022-08-19T03:28:34.996Z,14.68
2022-08-19T03:31:43.900Z,14.13
2022-08-19T03:33:55.752Z,16.13
2022-08-19T03:36:25.152Z,15.45
2022-08-19T03:38:59.596Z,14.33
2022-08-19T03:41:45.756Z,14.90
2022-08-19T03:44:19.233Z,12.40
2022-08-19T03:46:52.143Z,14.20
2022-08-19T03:49:20.603Z,13.27
2022-08-19T03:51:49.758Z,13.27
2022-08-19T03:54:18.788Z,12.52
2022-08-19T03:56:47.749Z,12.63
2022-08-19T03:59:19.365Z,12.90
2022-08-19T04:01:46.754Z,13.65
2022-08-19T04:04:13.506Z,10.20
2022-08-19T04:06:40.622Z,13.00
2022-08-19T04:09:11.495Z,15.75
2022-08-19T04:11:45.089Z,12.43
2022-08-19T04:14:15.243Z,14.52
2022-08-19T04:16:43.687Z,12.93
2022-08-19T04:19:10.574Z,13.05
2022-08-19T04:21:37.302Z,12.93
2022-08-19T04:24:04.862Z,10.85
2022-08-19T04:26:35.417Z,14.32
2022-08-19T04:29:09.174Z,14.60
2022-08-19T04:31:38.832Z,12.82
2022-08-19T04:34:07.897Z,17.30
2022-08-19T04:36:37.148Z,16.17
2022-08-19T04:39:07.996Z,16.48
2022-08-19T04:41:53.643Z,14.23
2022-08-19T04:44:20.554Z,11.95
2022-08-19T04:46:51.314Z,15.05
2022-08-19T04:49:23.326Z,17.73
2022-08-19T04:51:53.414Z,16.17
2022-08-19T04:54:37.412Z,17.57
2022-08-19T04:57:07.661Z,16.83
2022-08-19T04:59:35.622Z,19.08
2022-08-19T05:02:02.648Z,15.23
2022-08-19T05:04:33.116Z,18.88
2022-08-19T05:07:02.173Z,16.53
2022-08-19T05:09:33.115Z,17.75
2022-08-19T05:12:18.350Z,17.40
2022-08-19T05:14:45.990Z,17.13
2022-08-19T05:17:27.108Z,17.80
2022-08-19T05:20:14.477Z,18.47
2022-08-19T05:22:42.810Z,18.55
2022-08-19T05:25:13.857Z,20.20
2022-08-19T05:27:42.683Z,21.15
2022-08-19T05:30:11.298Z,17.75
2022-08-19T05:32:39.552Z,20.17
2022-08-19T05:35:07.096Z,20.73
2022-08-19T05:37:33.798Z,21.27
2022-08-19T05:40:00.724Z,21.25
2022-08-19T05:42:27.600Z,18.50
2022-08-19T05:44:54.514Z,21.03
2022-08-19T05:47:22.263Z,20.67
2022-08-19T05:49:51.034Z,20.42
2022-08-19T05:52:19.387Z,18.92
2022-08-19T05:54:50.858Z,21.00
2022-08-19T05:57:19.667Z,22.17
2022-08-19T05:59:49.435Z,19.55
2022-08-19T06:02:24.798Z,22.98
2022-08-19T06:04:51.577Z,17.42
2022-08-19T06:07:18.354Z,19.55
2022-08-19T06:09:59.213Z,18.80
2022-08-19T06:12:35.165Z,17.98
2022-08-19T06:15:06.695Z,17.60
2022-08-19T06:17:35.784Z,16.73
2022-08-19T06:20:09.730Z,18.27
2022-08-19T06:22:41.462Z,20.33
2022-08-19T06:25:10.232Z,14.82
2022-08-19T06:27:41.973Z,16.48
2022-08-19T06:30:15.914Z,16.48
2022-08-19T06:32:43.116Z,15.13
2022-08-19T06:35:10.248Z,17.20
2022-08-19T06:37:40.807Z,18.05
2022-08-19T06:40:11.650Z,17.23
2022-08-19T06:42:44.802Z,15.40
2022-08-19T06:45:24.427Z,14.38
2022-08-19T06:47:55.399Z,12.83
2022-08-19T06:50:24.987Z,12.05
2022-08-19T06:52:52.090Z,12.60
2022-08-19T06:55:20.114Z,14.68
2022-08-19T06:57:47.495Z,10.40
2022-08-19T07:00:14.904Z,11.60
2022-08-19T07:02:49.606Z,12.57
2022-08-19T07:05:20.324Z,13.82
2022-08-19T07:07:47.683Z,13.25
2022-08-19T07:10:14.922Z,12.00
2022-08-19T07:12:42.234Z,11.90
2022-08-19T07:15:11.884Z,13.18
2022-08-19T07:17:41.711Z,13.85
2022-08-19T07:20:10.393Z,14.52
2022-08-19T07:22:41.140Z,13.23
2022-08-19T07:25:10.287Z,13.07
2022-08-19T07:27:38.097Z,14.02
2022-08-19T07:30:12.198Z,13.50
2022-08-19T07:32:40.007Z,13.90
2022-08-19T07:35:07.904Z,13.50
2022-08-19T07:37:36.485Z,14.57
2022-08-19T07:40:05.295Z,12.85
2022-08-19T07:42:32.093Z,14.07
2022-08-19T07:44:59.622Z,14.07
2022-08-19T07:47:50.189Z,13.70
2022-08-19T07:50:16.246Z,15.23
2022-08-19T07:52:48.021Z,20.80
2022-08-19T07:55:42.171Z,16.40
2022-08-19T07:58:06.034Z,15.48
2022-08-19T08:00:33.058Z,17.63
2022-08-19T08:02:59.882Z,17.80
2022-08-19T08:05:45.286Z,15.65
2022-08-19T08:08:32.112Z,16.80
2022-08-19T08:11:00.105Z,16.88
2022-08-19T08:13:28.070Z,16.05
2022-08-19T08:15:55.920Z,17.97
2022-08-19T08:18:27.511Z,16.00
2022-08-19T08:20:58.060Z,15.98
2022-08-19T08:23:29.562Z,21.13
2022-08-19T08:25:59.008Z,21.58
2022-08-19T08:28:29.589Z,20.93
2022-08-19T08:30:58.077Z,20.10
2022-08-19T08:33:30.126Z,20.80
2022-08-19T08:36:08.590Z,21.10
2022-08-19T08:38:42.747Z,20.00
2022-08-19T08:41:42.053Z,21.97
2022-08-19T08:44:20.135Z,20.92
2022-08-19T08:46:57.682Z,17.67
2022-08-19T08:49:41.861Z,18.50
2022-08-19T08:52:22.536Z,18.02
2022-08-19T08:54:55.302Z,19.60
2022-08-19T08:58:00.202Z,18.92
2022-08-19T09:00:36.256Z,22.60
2022-08-19T09:03:04.583Z,17.80
2022-08-19T09:06:12.006Z,19.13
2022-08-19T09:09:12.295Z,22.17
2022-08-19T09:12:11.902Z,20.63
2022-08-19T09:14:51.166Z,19.92
2022-08-19T09:17:34.598Z,19.17
2022-08-19T09:20:18.833Z,19.45
2022-08-19T09:22:45.835Z,20.53
2022-08-19T09:25:18.132Z,22.70
2022-08-19T09:28:01.189Z,20.45
2022-08-19T09:30:34.019Z,23.73
2022-08-19T09:33:01.866Z,19.10
2022-08-19T09:35:30.280Z,17.63
2022-08-19T09:37:59.450Z,23.23
2022-08-19T09:40:30.064Z,20.55
2022-08-19T09:42:58.726Z,18.98
2022-08-19T09:45:25.664Z,18.88
2022-08-19T09:47:54.571Z,24.13
2022-08-19T09:50:23.124Z,20.25
2022-08-19T09:52:55.570Z,20.40
2022-08-19T09:55:31.912Z,19.80
2022-08-19T09:58:02.942Z,18.48
2022-08-19T10:00:31.745Z,20.47
2022-08-19T10:02:58.735Z,20.02
2022-08-19T10:05:54.480Z,21.63
2022-08-19T10:08:34.082Z,20.67
2022-08-19T10:11:27.912Z,23.02
2022-08-19T10:13:49.792Z,22.00
2022-08-19T10:16:20.667Z,22.80
2022-08-19T10:18:49.753Z,19.08
2022-08-19T10:21:25.543Z,20.35
2022-08-19T10:23:55.758Z,22.42
2022-08-19T10:26:29.773Z,22.13
2022-08-19T10:28:57.330Z,20.23
2022-08-19T10:32:00.558Z,22.85
2022-08-19T10:34:27.539Z,20.48
2022-08-19T10:36:56.258Z,18.80
2022-08-19T10:39:23.800Z,22.50
2022-08-19T10:41:57.893Z,19.63
2022-08-19T10:44:25.237Z,21.42
2022-08-19T10:47:00.010Z,20.00
2022-08-19T10:49:28.045Z,21.60
2022-08-19T10:52:18.775Z,19.87
2022-08-19T10:55:08.567Z,19.75
2022-08-19T10:57:52.697Z,18.50
2022-08-19T11:00:24.640Z,21.38
2022-08-19T11:02:52.687Z,19.52
2022-08-19T11:05:20.472Z,18.70
2022-08-19T11:07:52.754Z,21.50
2022-08-19T11:10:21.871Z,20.95
2022-08-19T11:12:49.300Z,21.65
2022-08-19T11:15:16.575Z,19.55
2022-08-19T11:17:44.757Z,21.47
2022-08-19T11:20:16.331Z,20.42
2022-08-19T11:22:43.662Z,20.38
2022-08-19T11:25:12.045Z,19.13
2022-08-19T11:27:43.839Z,20.05
2022-08-19T11:30:13.137Z,16.63
2022-08-19T11:32:45.686Z,21.08
2022-08-19T11:35:15.483Z,20.02
2022-08-19T11:37:42.395Z,20.23
2022-08-19T11:40:10.095Z,20.58
2022-08-19T11:42:55.385Z,17.97
2022-08-19T11:45:23.107Z,14.98
2022-08-19T11:47:50.238Z,20.95
2022-08-19T11:50:17.690Z,18.17
2022-08-19T11:52:46.095Z,17.40
2022-08-19T11:55:16.255Z,22.50
2022-08-19T11:57:44.696Z,22.42
2022-08-19T12:00:13.654Z,20.42
2022-08-19T12:02:41.044Z,22.65
2022-08-19T12:05:12.251Z,21.30
2022-08-19T12:07:40.744Z,20.53
2022-08-19T12:10:07.982Z,19.92
2022-08-19T12:12:35.527Z,20.38
2022-08-19T12:15:03.177Z,19.98
2022-08-19T12:17:31.877Z,19.67
2022-08-19T12:19:58.706Z,20.37
2022-08-19T12:22:25.631Z,18.73
2022-08-19T12:24:54.179Z,18.88
2022-08-19T12:27:35.660Z,19.55
2022-08-19T12:30:10.985Z,21.23
2022-08-19T12:32:38.239Z,19.00
2022-08-19T12:35:05.850Z,18.92
2022-08-19T12:37:33.242Z,18.30
2022-08-19T12:40:00.682Z,19.33
2022-08-19T12:42:28.061Z,17.33
2022-08-19T12:44:55.013Z,16.47
2022-08-19T12:47:22.216Z,17.30
2022-08-19T12:49:54.005Z,21.42
2022-08-19T12:52:28.136Z,17.67
2022-08-19T12:54:57.202Z,17.75
2022-08-19T12:57:32.103Z,20.77
2022-08-19T13:00:11.737Z,19.08
2022-08-19T13:02:40.351Z,19.75
2022-08-19T13:05:12.041Z,19.83
2022-08-19T13:07:40.617Z,18.35
2022-08-19T13:10:10.038Z,18.10
2022-08-19T13:12:37.090Z,17.20
2022-08-19T13:15:11.285Z,19.20
2022-08-19T13:17:39.731Z,19.50
2022-08-19T13:20:09.722Z,18.92
2022-08-19T13:22:37.069Z,15.23
2022-08-19T13:25:06.039Z,18.33
2022-08-19T13:27:33.223Z,17.48
2022-08-19T13:30:19.563Z,17.00
2022-08-19T13:33:04.853Z,16.63
2022-08-19T13:35:31.806Z,19.40
2022-08-19T13:37:58.719Z,19.65
2022-08-19T13:40:27.328Z,17.75
2022-08-19T13:42:56.193Z,18.58
2022-08-19T13:45:26.099Z,19.52
2022-08-19T13:47:59.269Z,18.43
2022-08-19T13:50:32.210Z,17.30
2022-08-19T13:52:59.908Z,18.73
2022-08-19T13:55:27.967Z,16.30
2022-08-19T13:57:57.366Z,17.80
2022-08-19T14:00:27.376Z,16.23
2022-08-19T14:02:56.849Z,19.50
2022-08-19T14:05:25.469Z,20.38
2022-08-19T14:07:53.005Z,14.45
2022-08-19T14:10:21.531Z,17.50
2022-08-19T14:12:48.663Z,15.27
2022-08-19T14:15:16.244Z,17.67
2022-08-19T14:17:45.516Z,16.63
2022-08-19T14:20:17.840Z,18.27
2022-08-19T14:22:46.956Z,16.52
2022-08-19T14:25:20.908Z,16.87
2022-08-19T14:27:48.537Z,15.05
2022-08-19T14:30:19.024Z,17.25
2022-08-19T14:32:45.902Z,12.90
2022-08-19T14:35:15.819Z,15.85
2022-08-19T14:37:46.149Z,15.77
2022-08-19T14:40:18.924Z,12.82
2022-08-19T14:42:45.747Z,13.35
2022-08-19T14:45:13.048Z,16.27
2022-08-19T14:47:40.887Z,13.93
2022-08-19T14:50:11.366Z,14.73
2022-08-19T14:52:45.305Z,11.95
2022-08-19T14:55:12.222Z,17.48
2022-08-19T14:57:41.115Z,15.95
2022-08-19T15:00:12.746Z,13.70
2022-08-19T15:02:40.195Z,13.17
2022-08-19T15:05:07.597Z,13.27
2022-08-19T15:07:34.479Z,12.93
2022-08-19T15:10:01.293Z,15.90
2022-08-19T15:12:28.283Z,13.73
2022-08-19T15:14:56.978Z,14.03
2022-08-19T15:17:43.545Z,15.48
2022-08-19T15:20:13.790Z,13.63
2022-08-19T15:22:41.024Z,13.63
2022-08-19T15:25:11.747Z,14.30
2022-08-19T15:27:39.925Z,13.10
2022-08-19T15:30:09.354Z,20.10
2022-08-19T15:32:37.334Z,12.85
2022-08-19T15:35:06.085Z,15.25
2022-08-19T15:37:36.961Z,12.93
2022-08-19T15:40:07.571Z,13.53
2022-08-19T15:42:37.541Z,15.27
2022-08-19T15:45:07.256Z,15.50
2022-08-19T15:47:35.413Z,15.55
2022-08-19T15:50:15.641Z,17.13
2022-08-19T15:52:52.963Z,14.57
2022-08-19T15:55:33.215Z,16.90
2022-08-19T15:58:28.933Z,19.10
2022-08-19T16:01:20.911Z,8.02
2022-08-19T16:04:11.306Z,6.47
2022-08-19T16:06:51.548Z,13.03
2022-08-19T16:09:26.499Z,9.45
2022-08-19T16:12:01.504Z,8.43
2022-08-19T16:14:31.208Z,9.40
2022-08-19T16:16:58.287Z,8.88
2022-08-19T16:19:26.845Z,8.33
2022-08-19T16:21:56.239Z,8.35
2022-08-19T16:24:26.989Z,7.45
2022-08-19T16:26:55.787Z,5.75
2022-08-19T16:29:33.601Z,5.93
2022-08-19T16:32:02.831Z,5.40
2022-08-19T16:34:30.714Z,6.68
2022-08-19T16:36:57.927Z,7.78
2022-08-19T16:39:24.727Z,6.55
2022-08-19T16:41:51.759Z,8.43
2022-08-19T16:44:21.010Z,7.20
2022-08-19T16:46:58.414Z,10.02
2022-08-19T16:49:53.657Z,9.73
2022-08-19T16:52:14.794Z,7.40
2022-08-19T16:54:43.635Z,7.82
2022-08-19T16:57:11.830Z,9.03
2022-08-19T16:59:48.093Z,6.22
2022-08-19T17:02:17.932Z,5.88
2022-08-19T17:04:58.363Z,9.55
2022-08-19T17:07:27.380Z,7.97
2022-08-19T17:09:54.090Z,5.68
2022-08-19T17:12:30.349Z,9.98
2022-08-19T17:14:58.504Z,6.00
2022-08-19T17:17:28.974Z,5.63
2022-08-19T17:19:56.466Z,7.47
2022-08-19T17:22:23.262Z,6.22
2022-08-19T17:24:49.956Z,9.73
2022-08-19T17:27:16.808Z,5.87
2022-08-19T17:29:46.943Z,4.85
2022-08-19T17:32:14.533Z,5.47
2022-08-19T17:34:41.362Z,4.68
2022-08-19T17:37:08.194Z,6.68
2022-08-19T17:39:39.489Z,5.57
2022-08-19T17:42:08.365Z,6.47
2022-08-19T17:44:36.729Z,6.47
2022-08-19T17:47:04.365Z,6.68
2022-08-19T17:49:33.248Z,5.40
2022-08-19T17:52:00.991Z,6.83
2022-08-19T17:54:31.919Z,5.63
2022-08-19T17:57:01.374Z,5.97
2022-08-19T17:59:30.237Z,7.68
2022-08-19T18:01:57.721Z,6.53
2022-08-19T18:04:26.036Z,6.03
2022-08-19T18:06:55.017Z,6.20
2022-08-19T18:09:24.629Z,8.10
2022-08-19T18:11:53.686Z,10.77
2022-08-19T18:14:30.495Z,5.50
2022-08-19T18:17:02.296Z,6.93
2022-08-19T18:19:34.201Z,5.72
2022-08-19T18:22:29.598Z,6.55
2022-08-19T18:24:58.183Z,6.07
2022-08-19T18:27:25.843Z,8.95
2022-08-19T18:29:54.571Z,9.20
2022-08-19T18:32:24.044Z,10.07
2022-08-19T18:34:51.923Z,7.72
2022-08-19T18:37:19.495Z,8.32
2022-08-19T18:40:05.048Z,8.45
2022-08-19T18:42:50.410Z,8.00
2022-08-19T18:45:35.695Z,7.93
2022-08-19T18:48:26.852Z,7.38
2022-08-19T18:50:57.245Z,8.32
2022-08-19T18:53:24.982Z,7.05
2022-08-19T18:55:55.549Z,6.70
2022-08-19T18:58:26.560Z,8.32
2022-08-19T19:00:56.829Z,7.38
2022-08-19T19:03:24.756Z,8.55
2022-08-19T19:05:52.798Z,7.53
2022-08-19T19:08:19.994Z,11.43
2022-08-19T19:10:53.470Z,7.60
2022-08-19T19:13:20.216Z,7.57
2022-08-19T19:15:47.058Z,9.38
2022-08-19T19:18:13.923Z,11.13
2022-08-19T19:20:41.079Z,8.43
2022-08-19T19:23:08.343Z,6.63
2022-08-19T19:25:49.555Z,7.70
2022-08-19T19:28:27.574Z,5.95
2022-08-19T19:30:59.499Z,7.75
2022-08-19T19:33:27.966Z,8.97
2022-08-19T19:35:54.948Z,6.80
2022-08-19T19:38:21.832Z,6.47
2022-08-19T19:40:48.778Z,7.60
2022-08-19T19:43:17.181Z,7.75
2022-08-19T19:45:44.348Z,8.47
2022-08-19T19:48:13.489Z,9.63
2022-08-19T19:50:40.632Z,11.77
2022-08-19T19:53:07.468Z,7.53
2022-08-19T19:55:34.434Z,6.93
2022-08-19T19:58:01.221Z,8.33
2022-08-19T20:00:29.974Z,10.10
2022-08-19T20:02:56.781Z,8.45
2022-08-19T20:05:24.029Z,8.57
2022-08-19T20:08:11.791Z,8.23
2022-08-19T20:10:40.060Z,8.63
2022-08-19T20:13:08.334Z,8.90
2022-08-19T20:15:40.297Z,9.35
2022-08-19T20:18:10.779Z,6.97
2022-08-19T20:20:38.037Z,8.57
2022-08-19T20:23:06.463Z,8.23
2022-08-19T20:25:34.040Z,9.45
2022-08-19T20:28:01.385Z,11.63
2022-08-19T20:30:28.983Z,9.65
2022-08-19T20:33:00.272Z,9.98
2022-08-19T20:35:27.115Z,8.13
2022-08-19T20:37:57.980Z,8.23
2022-08-19T20:40:29.859Z,9.45
2022-08-19T20:42:56.925Z,10.57
2022-08-19T20:45:32.731Z,12.98
2022-08-19T20:48:05.090Z,9.97
2022-08-19T20:50:36.121Z,10.55
2022-08-19T20:53:24.422Z,10.32
2022-08-19T20:55:51.284Z,9.52
2022-08-19T20:58:21.154Z,9.00
2022-08-19T21:00:49.626Z,9.97
2022-08-19T21:03:18.992Z,8.73
2022-08-19T21:05:46.566Z,7.68
2022-08-19T21:08:15.662Z,8.27
2022-08-19T21:10:42.630Z,11.05
2022-08-19T21:13:09.579Z,8.10
2022-08-19T21:15:40.554Z,9.90
2022-08-19T21:18:08.353Z,12.18
2022-08-19T21:20:35.224Z,8.63
2022-08-19T21:23:10.954Z,10.90
2022-08-19T21:25:38.458Z,10.80
2022-08-19T21:28:06.375Z,9.45
2022-08-19T21:30:34.866Z,8.80
2022-08-19T21:33:04.159Z,12.95
2022-08-19T21:35:31.350Z,10.93
2022-08-19T21:37:58.320Z,11.40
2022-08-19T21:40:26.420Z,10.75
2022-08-19T21:42:53.482Z,11.82
2022-08-19T21:45:21.073Z,9.35
2022-08-19T21:47:47.820Z,12.70
2022-08-19T21:50:14.622Z,9.53
2022-08-19T21:52:41.509Z,11.80
2022-08-19T21:55:09.988Z,11.45
2022-08-19T21:57:36.906Z,10.48
2022-08-19T22:00:09.964Z,9.85
2022-08-19T22:02:38.271Z,9.20
2022-08-19T22:05:05.772Z,7.68
2022-08-19T22:07:32.827Z,11.02
2022-08-19T22:09:59.663Z,8.73
2022-08-19T22:12:30.960Z,8.57
2022-08-19T22:14:59.013Z,8.80
2022-08-19T22:17:27.472Z,8.57
2022-08-19T22:19:55.983Z,7.80
2022-08-19T22:22:28.901Z,8.70
2022-08-19T22:25:02.526Z,7.40
2022-08-19T22:27:29.395Z,7.37
2022-08-19T22:29:56.255Z,8.68
2022-08-19T22:32:28.116Z,10.63
2022-08-19T22:34:58.627Z,7.38
2022-08-19T22:37:27.141Z,8.32
2022-08-19T22:39:54.019Z,6.70
2022-08-19T22:42:22.015Z,7.35
2022-08-19T22:44:48.926Z,8.77
2022-08-19T22:47:16.726Z,6.03
2022-08-19T22:49:44.281Z,9.05
2022-08-19T22:52:18.217Z,7.73
2022-08-19T22:54:46.927Z,7.75
2022-08-19T22:57:14.875Z,5.85
2022-08-19T22:59:42.163Z,9.73
2022-08-19T23:02:09.646Z,10.10
2022-08-19T23:04:36.450Z,7.60
2022-08-19T23:07:05.173Z,7.28
2022-08-19T23:09:32.018Z,7.18
2022-08-19T23:12:00.647Z,8.02
2022-08-19T23:14:28.097Z,9.35
2022-08-19T23:16:58.739Z,5.60
2022-08-19T23:19:25.961Z,5.78
2022-08-19T23:21:53.073Z,6.25
2022-08-19T23:24:19.980Z,7.25
2022-08-19T23:27:05.103Z,6.00
2022-08-19T23:29:50.563Z,5.27
2022-08-19T23:32:19.753Z,4.55
2022-08-19T23:34:47.122Z,5.78
2022-08-19T23:37:14.962Z,5.43
2022-08-19T23:39:41.820Z,6.53
2022-08-19T23:42:11.509Z,4.37
2022-08-19T23:44:51.219Z,6.35
2022-08-19T23:47:19.525Z,4.95
2022-08-19T23:49:47.498Z,6.10
2022-08-19T23:52:14.275Z,5.68
2022-08-19T23:54:42.912Z,5.47
2022-08-19T23:57:13.444Z,6.10
2022-08-19T23:59:42.713Z,5.85
